createdAt,value
2023-02-06T00:01:33.464Z,103676.09
2023-02-06T00:04:00.367Z,103679.06
2023-02-06T00:06:27.279Z,103682.94
2023-02-06T00:08:54.155Z,103687.44
2023-02-06T00:11:21.770Z,103684.25
2023-02-06T00:13:49.385Z,103684.50
2023-02-06T00:16:23.247Z,103683.22
2023-02-06T00:18:51.502Z,103671.94
2023-02-06T00:21:21.682Z,103682.91
2023-02-06T00:23:49.593Z,103680.44
2023-02-06T00:26:16.575Z,103671.19
2023-02-06T00:28:43.948Z,103666.06
2023-02-06T00:31:11.321Z,103660.13
2023-02-06T00:33:39.474Z,103667.09
2023-02-06T00:36:07.246Z,103664.63
2023-02-06T00:38:34.429Z,103663.09
2023-02-06T00:41:01.378Z,103661.59
2023-02-06T00:43:29.834Z,103648.97
2023-02-06T00:45:58.112Z,103662.63
2023-02-06T00:48:26.150Z,103666.09
2023-02-06T00:50:54.112Z,103668.03
2023-02-06T00:53:21.471Z,103657.88
2023-02-06T00:55:48.479Z,103655.06
2023-02-06T00:58:15.530Z,103659.81
2023-02-06T01:00:44.244Z,103658.91
2023-02-06T01:03:11.342Z,103653.00
2023-02-06T01:05:38.598Z,103653.00
2023-02-06T01:08:05.578Z,103646.69
2023-02-06T01:10:32.802Z,103651.31
2023-02-06T01:13:00.220Z,103645.28
2023-02-06T01:15:27.292Z,103647.72
2023-02-06T01:17:54.186Z,103647.59
2023-02-06T01:20:21.705Z,103656.06
2023-02-06T01:22:48.806Z,103648.34
2023-02-06T01:25:15.701Z,103649.28
2023-02-06T01:27:42.749Z,103637.16
2023-02-06T01:30:11.160Z,103644.00
2023-02-06T01:32:40.300Z,103636.28
2023-02-06T01:35:10.879Z,103630.09
2023-02-06T01:37:39.188Z,103625.84
2023-02-06T01:40:13.022Z,103625.75
2023-02-06T01:42:40.417Z,103617.88
2023-02-06T01:45:26.050Z,103614.16
2023-02-06T01:47:59.243Z,103606.81
2023-02-06T01:50:26.310Z,103613.22
2023-02-06T01:52:53.252Z,103596.81
2023-02-06T01:55:20.178Z,103609.66
2023-02-06T01:57:47.093Z,103590.88
2023-02-06T02:00:14.068Z,103592.81
2023-02-06T02:02:45.174Z,103603.09
2023-02-06T02:05:12.797Z,103592.03
2023-02-06T02:07:50.286Z,103592.19
2023-02-06T02:10:17.333Z,103596.69
2023-02-06T02:12:44.237Z,103589.84
2023-02-06T02:15:11.170Z,103597.72
2023-02-06T02:18:05.960Z,103595.00
2023-02-06T02:21:13.293Z,103596.69
2023-02-06T02:23:43.095Z,103606.97
2023-02-06T02:26:44.693Z,103602.59
2023-02-06T02:29:42.290Z,103603.50
2023-02-06T02:32:52.750Z,103599.50
2023-02-06T02:35:47.058Z,103593.63
2023-02-06T02:38:55.019Z,103596.28
2023-02-06T02:41:39.806Z,103593.88
2023-02-06T02:44:21.826Z,103595.66
2023-02-06T02:46:53.010Z,103595.94
2023-02-06T02:49:30.196Z,103602.09
2023-02-06T02:51:58.810Z,103594.50
2023-02-06T02:54:28.618Z,103592.84
2023-02-06T02:57:08.560Z,103604.00
2023-02-06T02:59:45.949Z,103591.94
2023-02-06T03:02:20.217Z,103588.59
2023-02-06T03:05:00.285Z,103598.22
2023-02-06T03:07:48.363Z,103587.19
2023-02-06T03:10:39.217Z,103600.44
2023-02-06T03:13:32.512Z,103578.44
2023-02-06T03:16:16.109Z,103580.91
2023-02-06T03:18:55.709Z,103562.50
2023-02-06T03:21:23.869Z,103571.13
2023-02-06T03:23:55.161Z,103565.72
2023-02-06T03:26:26.365Z,103556.19
2023-02-06T03:29:01.304Z,103552.06
2023-02-06T03:32:08.532Z,103549.66
2023-02-06T03:35:04.220Z,103557.59
2023-02-06T03:37:32.502Z,103553.63
2023-02-06T03:40:01.503Z,103553.75
2023-02-06T03:42:30.614Z,103548.09
2023-02-06T03:45:08.547Z,103551.69
2023-02-06T03:47:38.076Z,103547.53
2023-02-06T03:50:08.891Z,103549.47
2023-02-06T03:52:44.871Z,103548.72
2023-02-06T03:55:18.661Z,103541.09
2023-02-06T03:57:51.990Z,103549.84
2023-02-06T04:00:20.185Z,103540.59
2023-02-06T04:02:49.133Z,103545.97
2023-02-06T04:05:19.274Z,103561.69
2023-02-06T04:07:46.294Z,103556.91
2023-02-06T04:10:13.492Z,103555.34
2023-02-06T04:12:40.411Z,103551.38
2023-02-06T04:15:07.799Z,103540.81
2023-02-06T04:17:49.814Z,103553.41
2023-02-06T04:20:21.566Z,103553.53
2023-02-06T04:22:48.458Z,103548.50
2023-02-06T04:25:15.459Z,103532.56
2023-02-06T04:27:42.348Z,103546.94
2023-02-06T04:30:10.012Z,103549.53
2023-02-06T04:32:36.910Z,103547.97
2023-02-06T04:35:03.897Z,103542.19
2023-02-06T04:37:30.835Z,103544.75
2023-02-06T04:39:57.701Z,103544.88
2023-02-06T04:42:24.609Z,103542.97
2023-02-06T04:44:51.502Z,103549.63
2023-02-06T04:47:18.385Z,103542.78
2023-02-06T04:49:45.259Z,103546.53
2023-02-06T04:52:12.183Z,103547.66
2023-02-06T04:54:39.057Z,103555.63
2023-02-06T04:57:05.938Z,103549.94
2023-02-06T04:59:32.817Z,103551.88
2023-02-06T05:01:59.713Z,103546.47
2023-02-06T05:04:26.629Z,103554.16
2023-02-06T05:06:53.493Z,103551.69
2023-02-06T05:09:20.392Z,103551.03
2023-02-06T05:11:47.305Z,103540.19
2023-02-06T05:14:14.194Z,103547.44
2023-02-06T05:16:41.071Z,103551.00
2023-02-06T05:19:08.134Z,103562.47
2023-02-06T05:21:35.021Z,103572.13
2023-02-06T05:24:01.909Z,103568.75
2023-02-06T05:26:28.852Z,103573.16
2023-02-06T05:28:55.754Z,103579.44
2023-02-06T05:31:22.879Z,103570.69
2023-02-06T05:33:52.515Z,103572.19
2023-02-06T05:36:20.581Z,103577.59
2023-02-06T05:38:48.604Z,103580.94
2023-02-06T05:41:16.067Z,103591.72
2023-02-06T05:43:43.178Z,103599.69
2023-02-06T05:46:11.244Z,103597.03
2023-02-06T05:48:38.551Z,103593.16
2023-02-06T05:51:05.727Z,103598.31
2023-02-06T05:53:32.649Z,103600.13
2023-02-06T05:55:59.536Z,103603.72
2023-02-06T05:58:26.484Z,103610.91
2023-02-06T06:00:53.378Z,103611.84
2023-02-06T06:03:20.329Z,103606.78
2023-02-06T06:05:47.476Z,103620.69
2023-02-06T06:08:15.055Z,103615.31
2023-02-06T06:10:41.957Z,103620.09
2023-02-06T06:13:08.876Z,103615.34
2023-02-06T06:15:36.072Z,103620.25
2023-02-06T06:18:03.369Z,103621.28
2023-02-06T06:20:30.268Z,103619.47
2023-02-06T06:22:57.183Z,103619.84
2023-02-06T06:25:24.143Z,103615.09
2023-02-06T06:27:51.163Z,103612.78
2023-02-06T06:30:18.185Z,103623.31
2023-02-06T06:32:45.097Z,103622.53
2023-02-06T06:35:11.978Z,103627.03
2023-02-06T06:37:38.887Z,103630.78
2023-02-06T06:40:06.207Z,103637.94
2023-02-06T06:42:33.756Z,103640.88
2023-02-06T06:45:00.751Z,103649.78
2023-02-06T06:47:27.945Z,103643.03
2023-02-06T06:49:54.835Z,103639.81
2023-02-06T06:52:25.464Z,103641.84
2023-02-06T06:54:53.394Z,103642.09
2023-02-06T06:57:21.809Z,103640.97
2023-02-06T06:59:49.261Z,103658.59
2023-02-06T07:02:17.285Z,103661.06
2023-02-06T07:04:44.241Z,103656.19
2023-02-06T07:07:11.205Z,103665.34
2023-02-06T07:09:38.144Z,103668.06
2023-02-06T07:12:05.477Z,103672.19
2023-02-06T07:14:32.407Z,103681.47
2023-02-06T07:17:00.814Z,103688.84
2023-02-06T07:19:27.825Z,103675.13
2023-02-06T07:21:54.717Z,103692.22
2023-02-06T07:24:22.328Z,103685.78
2023-02-06T07:26:49.294Z,103680.41
2023-02-06T07:29:16.175Z,103694.06
2023-02-06T07:31:43.150Z,103691.00
2023-02-06T07:34:10.165Z,103692.78
2023-02-06T07:36:37.315Z,103688.66
2023-02-06T07:39:04.969Z,103701.03
2023-02-06T07:41:32.122Z,103699.56
2023-02-06T07:43:59.018Z,103707.22
2023-02-06T07:46:26.008Z,103707.44
2023-02-06T07:48:52.927Z,103709.50
2023-02-06T07:51:20.093Z,103712.75
2023-02-06T07:53:48.064Z,103709.03
2023-02-06T07:56:20.252Z,103712.28
2023-02-06T07:58:52.024Z,103709.44
2023-02-06T08:01:20.658Z,103717.03
2023-02-06T08:03:52.991Z,103716.63
2023-02-06T08:06:24.206Z,103720.09
2023-02-06T08:08:52.141Z,103715.50
2023-02-06T08:11:21.552Z,103717.94
2023-02-06T08:13:48.779Z,103714.47
2023-02-06T08:16:19.255Z,103720.50
2023-02-06T08:18:46.531Z,103728.63
2023-02-06T08:21:23.401Z,103732.75
2023-02-06T08:23:58.566Z,103728.25
2023-02-06T08:26:28.101Z,103739.22
2023-02-06T08:28:56.798Z,103738.72
2023-02-06T08:31:28.442Z,103728.69
2023-02-06T08:33:56.270Z,103732.38
2023-02-06T08:36:24.892Z,103737.16
2023-02-06T08:38:53.041Z,103737.03
2023-02-06T08:41:24.635Z,103732.94
2023-02-06T08:43:56.990Z,103740.13
2023-02-06T08:46:28.353Z,103746.22
2023-02-06T08:49:01.816Z,103742.84
2023-02-06T08:51:28.940Z,103736.81
2023-02-06T08:54:05.005Z,103753.00
2023-02-06T08:56:34.343Z,103749.91
2023-02-06T08:59:01.602Z,103753.25
2023-02-06T09:01:32.083Z,103744.13
2023-02-06T09:04:02.696Z,103766.66
2023-02-06T09:06:30.802Z,103762.91
2023-02-06T09:08:57.916Z,103750.38
2023-02-06T09:11:26.149Z,103756.19
2023-02-06T09:13:56.707Z,103769.69
2023-02-06T09:16:24.917Z,103755.22
2023-02-06T09:18:54.244Z,103787.16
2023-02-06T09:21:24.959Z,103791.13
2023-02-06T09:23:55.830Z,103799.25
2023-02-06T09:26:27.562Z,103799.50
2023-02-06T09:29:01.137Z,103792.00
2023-02-06T09:31:30.709Z,103787.84
2023-02-06T09:33:58.361Z,103775.84
2023-02-06T09:36:25.260Z,103788.22
2023-02-06T09:38:53.993Z,103792.59
2023-02-06T09:41:26.901Z,103801.38
2023-02-06T09:44:04.990Z,103797.38
2023-02-06T09:46:35.718Z,103791.00
2023-02-06T09:49:13.588Z,103794.19
2023-02-06T09:52:01.009Z,103790.69
2023-02-06T09:54:46.157Z,103790.22
2023-02-06T09:57:31.383Z,103802.34
2023-02-06T10:00:42.688Z,103796.16
2023-02-06T10:03:33.715Z,103797.19
2023-02-06T10:06:15.156Z,103792.63
2023-02-06T10:09:19.124Z,103778.09
2023-02-06T10:12:06.382Z,103798.03
2023-02-06T10:14:57.039Z,103804.44
2023-02-06T10:17:29.244Z,103799.66
2023-02-06T10:20:36.867Z,103804.22
2023-02-06T10:23:12.901Z,103793.00
2023-02-06T10:26:00.111Z,103796.97
2023-02-06T10:28:30.373Z,103795.22
2023-02-06T10:31:26.016Z,103787.38
2023-02-06T10:34:28.430Z,103794.06
2023-02-06T10:37:57.181Z,103800.38
2023-02-06T10:40:54.947Z,103795.88
2023-02-06T10:44:02.945Z,103804.97
2023-02-06T10:46:48.418Z,103810.84
2023-02-06T10:49:38.982Z,103803.22
2023-02-06T10:52:24.634Z,103801.66
2023-02-06T10:54:56.885Z,103813.56
2023-02-06T10:57:28.492Z,103812.66
2023-02-06T11:00:00.750Z,103818.38
2023-02-06T11:03:06.646Z,103805.75
2023-02-06T11:05:35.379Z,103818.25
2023-02-06T11:08:23.275Z,103817.56
2023-02-06T11:10:50.486Z,103828.25
2023-02-06T11:13:35.380Z,103818.03
2023-02-06T11:16:13.618Z,103818.41
2023-02-06T11:18:43.730Z,103813.66
2023-02-06T11:21:13.762Z,103813.13
2023-02-06T11:23:42.135Z,103803.31
2023-02-06T11:26:15.235Z,103815.69
2023-02-06T11:28:54.084Z,103821.31
2023-02-06T11:31:40.793Z,103832.22
2023-02-06T11:34:28.853Z,103824.03
2023-02-06T11:37:39.031Z,103816.69
2023-02-06T11:40:17.605Z,103830.22
2023-02-06T11:42:52.595Z,103831.69
2023-02-06T11:45:32.660Z,103828.22
2023-02-06T11:48:00.101Z,103819.91
2023-02-06T11:50:34.584Z,103831.81
2023-02-06T11:53:17.138Z,103827.88
2023-02-06T11:55:46.735Z,103819.56
2023-02-06T11:58:13.478Z,103816.50
2023-02-06T12:00:54.618Z,103821.22
2023-02-06T12:03:59.678Z,103818.06
2023-02-06T12:06:38.598Z,103809.50
2023-02-06T12:09:12.469Z,103816.16
2023-02-06T12:12:02.614Z,103818.28
2023-02-06T12:14:40.614Z,103820.56
2023-02-06T12:17:37.875Z,103815.06
2023-02-06T12:20:18.832Z,103823.25
2023-02-06T12:23:01.353Z,103828.88
2023-02-06T12:25:37.029Z,103832.72
2023-02-06T12:28:16.054Z,103835.19
2023-02-06T12:30:51.420Z,103827.78
2023-02-06T12:33:45.553Z,103832.84
2023-02-06T12:36:21.525Z,103839.78
2023-02-06T12:39:01.037Z,103843.53
2023-02-06T12:41:52.055Z,103829.44
2023-02-06T12:44:37.266Z,103843.41
2023-02-06T12:47:27.360Z,103841.69
2023-02-06T12:50:04.908Z,103844.97
2023-02-06T12:52:53.062Z,103848.81
2023-02-06T12:55:39.480Z,103842.78
2023-02-06T12:58:32.500Z,103828.53
2023-02-06T13:01:34.358Z,103852.91
2023-02-06T13:04:31.496Z,103837.19
2023-02-06T13:07:11.828Z,103832.34
2023-02-06T13:09:50.127Z,103834.72
2023-02-06T13:12:25.030Z,103837.66
2023-02-06T13:14:56.328Z,103828.47
2023-02-06T13:17:34.735Z,103829.00
2023-02-06T13:20:15.468Z,103835.53
2023-02-06T13:22:53.770Z,103834.34
2023-02-06T13:25:29.280Z,103836.03
2023-02-06T13:28:01.557Z,103835.03
2023-02-06T13:30:31.534Z,103829.75
2023-02-06T13:33:17.128Z,103826.84
2023-02-06T13:36:10.196Z,103825.03
2023-02-06T13:38:38.794Z,103824.44
2023-02-06T13:41:14.696Z,103831.78
2023-02-06T13:44:06.608Z,103834.25
2023-02-06T13:47:14.036Z,103813.78
2023-02-06T13:50:19.933Z,103837.38
2023-02-06T13:53:02.410Z,103835.81
2023-02-06T13:56:05.947Z,103849.75
2023-02-06T13:58:39.214Z,103849.09
2023-02-06T14:01:15.840Z,103845.06
2023-02-06T14:03:47.765Z,103839.88
2023-02-06T14:06:45.982Z,103846.50
2023-02-06T14:09:58.210Z,103844.72
2023-02-06T14:12:53.028Z,103839.63
2023-02-06T14:15:50.898Z,103853.81
2023-02-06T14:18:43.077Z,103859.09
2023-02-06T14:21:35.386Z,103859.25
2023-02-06T14:24:27.597Z,103851.69
2023-02-06T14:27:31.508Z,103857.25
2023-02-06T14:30:27.500Z,103872.19
2023-02-06T14:33:44.240Z,103870.06
2023-02-06T14:36:43.146Z,103874.66
2023-02-06T14:39:39.554Z,103875.91
2023-02-06T14:42:21.306Z,103878.75
2023-02-06T14:45:04.181Z,103884.13
2023-02-06T14:47:42.171Z,103888.50
2023-02-06T14:50:25.792Z,103889.41
2023-02-06T14:53:24.480Z,103891.88
2023-02-06T14:55:51.548Z,103890.06
2023-02-06T14:58:28.322Z,103894.25
2023-02-06T15:00:57.786Z,103893.91
2023-02-06T15:03:27.340Z,103894.81
2023-02-06T15:06:09.039Z,103900.44
2023-02-06T15:08:36.351Z,103904.38
2023-02-06T15:11:19.266Z,103923.94
2023-02-06T15:13:55.177Z,103913.59
2023-02-06T15:16:22.460Z,103905.72
2023-02-06T15:18:49.387Z,103908.97
2023-02-06T15:21:19.448Z,103914.16
2023-02-06T15:24:30.226Z,103910.44
2023-02-06T15:27:32.606Z,103928.28
2023-02-06T15:30:00.949Z,103917.56
2023-02-06T15:32:39.635Z,103917.34
2023-02-06T15:35:35.371Z,103936.13
2023-02-06T15:38:10.380Z,103936.13
2023-02-06T15:40:42.481Z,103942.09
2023-02-06T15:43:20.089Z,103937.34
2023-02-06T15:45:50.345Z,103924.06
2023-02-06T15:48:39.108Z,103920.22
2023-02-06T15:51:08.785Z,103916.66
2023-02-06T15:53:41.211Z,103920.00
2023-02-06T15:56:21.039Z,103917.63
2023-02-06T15:58:55.765Z,103925.59
2023-02-06T16:01:22.725Z,103933.91
2023-02-06T16:03:56.542Z,103920.38
2023-02-06T16:06:23.451Z,103917.78
2023-02-06T16:08:56.647Z,103933.50
2023-02-06T16:11:46.321Z,103953.69
2023-02-06T16:14:38.932Z,103941.06
2023-02-06T16:17:29.234Z,103943.06
2023-02-06T16:20:05.940Z,103942.34
2023-02-06T16:22:40.078Z,103946.25
2023-02-06T16:25:30.345Z,103954.16
2023-02-06T16:27:58.139Z,103952.66
2023-02-06T16:30:30.034Z,103954.63
2023-02-06T16:32:59.195Z,103949.09
2023-02-06T16:35:26.641Z,103946.91
2023-02-06T16:37:54.488Z,103952.50
2023-02-06T16:40:21.484Z,103954.56
2023-02-06T16:42:48.432Z,103961.16
2023-02-06T16:45:25.035Z,103969.56
2023-02-06T16:47:52.090Z,103965.81
2023-02-06T16:50:21.451Z,103963.88
2023-02-06T16:52:54.791Z,103956.78
2023-02-06T16:55:24.697Z,103960.03
2023-02-06T16:57:56.127Z,103954.63
2023-02-06T17:00:25.805Z,103952.03
2023-02-06T17:02:53.838Z,103963.16
2023-02-06T17:05:24.807Z,103965.59
2023-02-06T17:07:53.346Z,103945.63
2023-02-06T17:10:25.486Z,103969.56
2023-02-06T17:12:52.740Z,103963.13
2023-02-06T17:15:19.780Z,103970.78
2023-02-06T17:17:47.163Z,103965.09
2023-02-06T17:20:31.451Z,103981.22
2023-02-06T17:22:58.492Z,103972.47
2023-02-06T17:25:25.580Z,103970.66
2023-02-06T17:27:52.723Z,103976.59
2023-02-06T17:30:22.850Z,103974.75
2023-02-06T17:32:49.850Z,103980.47
2023-02-06T17:35:17.527Z,103983.03
2023-02-06T17:37:44.445Z,103974.13
2023-02-06T17:40:19.488Z,103981.63
2023-02-06T17:42:47.152Z,103968.47
2023-02-06T17:45:14.124Z,103967.19
2023-02-06T17:47:41.036Z,103961.63
2023-02-06T17:50:09.934Z,103960.34
2023-02-06T17:52:36.835Z,103969.38
2023-02-06T17:55:03.770Z,103968.06
2023-02-06T17:57:30.816Z,103966.00
2023-02-06T17:59:57.723Z,103975.91
2023-02-06T18:02:24.709Z,103966.78
2023-02-06T18:04:54.049Z,103982.75
2023-02-06T18:07:21.553Z,103978.72
2023-02-06T18:09:48.463Z,103965.31
2023-02-06T18:12:15.947Z,103977.66
2023-02-06T18:14:42.983Z,103979.06
2023-02-06T18:17:10.266Z,103954.41
2023-02-06T18:19:42.236Z,103969.38
2023-02-06T18:22:12.803Z,103980.06
2023-02-06T18:24:40.461Z,103973.25
2023-02-06T18:27:08.497Z,103980.59
2023-02-06T18:29:50.345Z,103960.50
2023-02-06T18:32:18.943Z,103973.28
2023-02-06T18:34:46.351Z,103975.09
2023-02-06T18:37:13.400Z,103959.09
2023-02-06T18:39:40.282Z,103974.31
2023-02-06T18:42:25.586Z,103980.34
2023-02-06T18:44:52.473Z,103984.75
2023-02-06T18:47:19.781Z,103988.09
2023-02-06T18:49:46.790Z,103988.09
2023-02-06T18:52:14.111Z,103993.13
2023-02-06T18:54:41.018Z,103994.50
2023-02-06T18:57:08.124Z,103986.53
2023-02-06T18:59:35.900Z,103993.22
2023-02-06T19:02:03.037Z,103998.25
2023-02-06T19:04:30.186Z,103990.63
2023-02-06T19:06:57.077Z,104000.13
2023-02-06T19:09:24.068Z,103993.19
2023-02-06T19:11:51.025Z,103997.28
2023-02-06T19:14:22.441Z,103990.09
2023-02-06T19:16:51.614Z,103996.78
2023-02-06T19:19:19.200Z,104008.34
2023-02-06T19:21:46.347Z,103998.69
2023-02-06T19:24:15.726Z,104005.22
2023-02-06T19:26:42.624Z,104009.19
2023-02-06T19:29:11.703Z,104018.59
2023-02-06T19:31:40.498Z,104027.72
2023-02-06T19:34:07.525Z,104031.53
2023-02-06T19:36:35.045Z,104030.13
2023-02-06T19:39:05.687Z,104012.94
2023-02-06T19:41:34.141Z,104032.91
2023-02-06T19:44:09.124Z,104025.28
2023-02-06T19:46:37.449Z,104025.81
2023-02-06T19:49:06.262Z,104024.41
2023-02-06T19:51:39.762Z,104020.03
2023-02-06T19:54:06.991Z,104009.84
2023-02-06T19:56:39.237Z,104013.22
2023-02-06T19:59:18.290Z,104008.19
2023-02-06T20:01:51.579Z,104006.22
2023-02-06T20:04:21.860Z,104011.13
2023-02-06T20:06:51.058Z,104011.00
2023-02-06T20:09:20.425Z,104013.16
2023-02-06T20:11:49.108Z,104010.44
2023-02-06T20:14:17.486Z,104014.25
2023-02-06T20:16:45.404Z,104007.94
2023-02-06T20:19:19.697Z,104003.28
2023-02-06T20:21:54.389Z,104006.06
2023-02-06T20:24:29.049Z,104013.34
2023-02-06T20:27:00.700Z,104017.31
2023-02-06T20:29:35.384Z,104014.81
2023-02-06T20:32:05.482Z,104019.47
2023-02-06T20:34:33.002Z,104014.53
2023-02-06T20:36:59.886Z,104045.25
2023-02-06T20:39:27.500Z,104029.06
2023-02-06T20:41:54.810Z,104028.63
2023-02-06T20:44:21.965Z,104046.50
2023-02-06T20:46:49.244Z,104055.75
2023-02-06T20:49:20.268Z,104053.91
2023-02-06T20:51:49.189Z,104055.16
2023-02-06T20:54:17.082Z,104050.81
2023-02-06T20:56:44.183Z,104045.41
2023-02-06T20:59:14.690Z,104048.94
2023-02-06T21:01:42.207Z,104040.16
2023-02-06T21:04:12.556Z,104028.28
2023-02-06T21:06:39.851Z,104037.47
2023-02-06T21:09:07.961Z,104040.94
2023-02-06T21:11:47.976Z,104060.44
2023-02-06T21:14:15.672Z,104041.41
2023-02-06T21:16:43.748Z,104037.94
2023-02-06T21:19:13.881Z,104049.72
2023-02-06T21:21:41.308Z,104047.00
2023-02-06T21:24:08.846Z,104045.66
2023-02-06T21:26:36.808Z,104040.88
2023-02-06T21:29:07.627Z,104053.00
2023-02-06T21:31:38.443Z,104047.28
2023-02-06T21:34:19.064Z,104042.88
2023-02-06T21:36:46.437Z,104044.13
2023-02-06T21:39:20.343Z,104050.31
2023-02-06T21:41:51.643Z,104062.38
2023-02-06T21:44:18.627Z,104055.16
2023-02-06T21:46:45.515Z,104052.59
2023-02-06T21:49:13.434Z,104056.66
2023-02-06T21:51:40.330Z,104047.47
2023-02-06T21:54:08.267Z,104056.22
2023-02-06T21:56:38.103Z,104064.53
2023-02-06T21:59:06.726Z,104071.06
2023-02-06T22:01:34.269Z,104071.66
2023-02-06T22:04:03.403Z,104073.91
2023-02-06T22:06:30.900Z,104078.63
2023-02-06T22:09:04.416Z,104076.97
2023-02-06T22:11:31.843Z,104089.06
2023-02-06T22:14:02.003Z,104086.34
2023-02-06T22:16:29.404Z,104084.38
2023-02-06T22:18:56.737Z,104082.41
2023-02-06T22:21:27.018Z,104091.50
2023-02-06T22:23:57.936Z,104079.25
2023-02-06T22:26:26.529Z,104085.63
2023-02-06T22:28:53.610Z,104085.28
2023-02-06T22:31:24.050Z,104086.50
2023-02-06T22:33:52.371Z,104082.75
2023-02-06T22:36:23.390Z,104077.31
2023-02-06T22:39:01.987Z,104075.34
2023-02-06T22:41:29.670Z,104073.22
2023-02-06T22:43:56.797Z,104079.84
2023-02-06T22:46:31.746Z,104076.22
2023-02-06T22:48:59.329Z,104078.66
2023-02-06T22:51:26.795Z,104075.03
2023-02-06T22:53:54.496Z,104078.38
2023-02-06T22:56:31.681Z,104083.16
2023-02-06T22:59:18.036Z,104095.88
2023-02-06T23:01:51.781Z,104093.75
2023-02-06T23:04:28.959Z,104102.19
2023-02-06T23:06:55.987Z,104106.25
2023-02-06T23:09:29.099Z,104100.97
2023-02-06T23:11:58.313Z,104100.66
2023-02-06T23:14:25.916Z,104095.38
2023-02-06T23:16:52.851Z,104095.06
2023-02-06T23:19:20.225Z,104095.97
2023-02-06T23:21:49.373Z,104090.53
2023-02-06T23:24:16.464Z,104100.66
2023-02-06T23:26:47.753Z,104101.28
2023-02-06T23:29:17.866Z,104104.44
2023-02-06T23:31:47.048Z,104116.00
2023-02-06T23:34:15.657Z,104111.78
2023-02-06T23:36:42.937Z,104109.53
2023-02-06T23:39:11.692Z,104103.50
2023-02-06T23:41:38.933Z,104123.84
2023-02-06T23:44:07.811Z,104112.69
2023-02-06T23:46:36.849Z,104104.69
2023-02-06T23:49:04.934Z,104106.19
2023-02-06T23:51:32.943Z,104105.13
2023-02-06T23:53:59.853Z,104100.59
2023-02-06T23:56:29.975Z,104098.63
2023-02-06T23:58:58.959Z,104111.28
